sensor_id;sensor_type;location;lat;lon;timestamp;P1;durP1;ratioP1;P2;durP2;ratioP2
71174;SDS011;58876;51.994;4.472;2022-09-21T00:01:03;93.30;;;93.30;;
71174;SDS011;58876;51.994;4.472;2022-09-21T00:03:33;87.80;;;87.80;;
71174;SDS011;58876;51.994;4.472;2022-09-21T00:06:03;85.52;;;85.52;;
71174;SDS011;58876;51.994;4.472;2022-09-21T00:08:30;95.18;;;95.18;;
71174;SDS011;58876;51.994;4.472;2022-09-21T00:10:55;153.14;;;153.14;;
71174;SDS011;58876;51.994;4.472;2022-09-21T00:13:21;193.26;;;193.26;;
71174;SDS011;58876;51.994;4.472;2022-09-21T00:15:46;191.75;;;191.75;;
71174;SDS011;58876;51.994;4.472;2022-09-21T00:18:12;181.58;;;181.58;;
71174;SDS011;58876;51.994;4.472;2022-09-21T00:20:39;124.34;;;124.34;;
71174;SDS011;58876;51.994;4.472;2022-09-21T00:23:07;107.07;;;107.07;;
71174;SDS011;58876;51.994;4.472;2022-09-21T00:25:34;117.03;;;117.03;;
71174;SDS011;58876;51.994;4.472;2022-09-21T00:27:59;133.59;;;133.59;;
71174;SDS011;58876;51.994;4.472;2022-09-21T00:30:25;115.31;;;115.31;;
71174;SDS011;58876;51.994;4.472;2022-09-21T00:32:52;103.92;;;103.92;;
71174;SDS011;58876;51.994;4.472;2022-09-21T00:35:17;108.69;;;108.69;;
71174;SDS011;58876;51.994;4.472;2022-09-21T00:37:43;99.25;;;99.25;;
71174;SDS011;58876;51.994;4.472;2022-09-21T00:40:09;101.28;;;101.28;;
71174;SDS011;58876;51.994;4.472;2022-09-21T00:42:35;99.59;;;99.59;;
71174;SDS011;58876;51.994;4.472;2022-09-21T00:45:01;105.17;;;105.17;;
71174;SDS011;58876;51.994;4.472;2022-09-21T00:49:59;89.02;;;89.02;;
71174;SDS011;58876;51.994;4.472;2022-09-21T00:52:31;96.61;;;96.61;;
71174;SDS011;58876;51.994;4.472;2022-09-21T00:55:12;129.11;;;129.11;;
71174;SDS011;58876;51.994;4.472;2022-09-21T00:57:47;127.04;;;127.04;;
71174;SDS011;58876;51.994;4.472;2022-09-21T01:00:19;118.17;;;118.17;;
71174;SDS011;58876;51.994;4.472;2022-09-21T01:02:44;114.28;;;114.28;;
71174;SDS011;58876;51.994;4.472;2022-09-21T01:05:10;115.32;;;115.32;;
71174;SDS011;58876;51.994;4.472;2022-09-21T01:07:37;116.20;;;116.20;;
71174;SDS011;58876;51.994;4.472;2022-09-21T01:10:08;108.09;;;108.09;;
71174;SDS011;58876;51.994;4.472;2022-09-21T01:21:52;90.53;;;90.53;;
71174;SDS011;58876;51.994;4.472;2022-09-21T01:24:40;131.32;;;131.32;;
71174;SDS011;58876;51.994;4.472;2022-09-21T01:27:37;142.39;;;142.39;;
71174;SDS011;58876;51.994;4.472;2022-09-21T01:30:23;139.44;;;139.44;;
71174;SDS011;58876;51.994;4.472;2022-09-21T01:35:28;148.98;;;148.98;;
71174;SDS011;58876;51.994;4.472;2022-09-21T01:38:04;410.67;;;410.67;;
71174;SDS011;58876;51.994;4.472;2022-09-21T01:40:39;483.48;;;483.48;;
71174;SDS011;58876;51.994;4.472;2022-09-21T01:43:10;489.63;;;489.63;;
71174;SDS011;58876;51.994;4.472;2022-09-21T01:45:43;520.72;;;520.72;;
71174;SDS011;58876;51.994;4.472;2022-09-21T01:48:14;1597.70;;;1597.70;;
71174;SDS011;58876;51.994;4.472;2022-09-21T01:50:44;757.52;;;757.52;;
71174;SDS011;58876;51.994;4.472;2022-09-21T01:53:30;190.83;;;190.83;;
71174;SDS011;58876;51.994;4.472;2022-09-21T01:58:54;114.89;;;114.89;;
71174;SDS011;58876;51.994;4.472;2022-09-21T02:01:37;105.40;;;105.40;;
71174;SDS011;58876;51.994;4.472;2022-09-21T02:04:10;82.46;;;82.46;;
71174;SDS011;58876;51.994;4.472;2022-09-21T02:06:39;68.07;;;68.07;;
71174;SDS011;58876;51.994;4.472;2022-09-21T02:09:07;64.87;;;64.87;;
71174;SDS011;58876;51.994;4.472;2022-09-21T02:11:35;67.37;;;67.37;;
71174;SDS011;58876;51.994;4.472;2022-09-21T02:14:02;74.61;;;74.61;;
71174;SDS011;58876;51.994;4.472;2022-09-21T02:16:37;104.95;;;104.95;;
71174;SDS011;58876;51.994;4.472;2022-09-21T02:19:17;92.05;;;92.05;;
71174;SDS011;58876;51.994;4.472;2022-09-21T02:25:06;96.70;;;96.70;;
71174;SDS011;58876;51.994;4.472;2022-09-21T02:30:20;342.72;;;342.72;;
71174;SDS011;58876;51.994;4.472;2022-09-21T02:32:53;729.98;;;729.98;;
71174;SDS011;58876;51.994;4.472;2022-09-21T02:35:45;521.95;;;521.95;;
71174;SDS011;58876;51.994;4.472;2022-09-21T02:41:15;264.09;;;264.09;;
71174;SDS011;58876;51.994;4.472;2022-09-21T02:43:58;261.76;;;261.76;;
71174;SDS011;58876;51.994;4.472;2022-09-21T02:46:52;386.37;;;386.37;;
71174;SDS011;58876;51.994;4.472;2022-09-21T02:49:24;374.91;;;374.91;;
71174;SDS011;58876;51.994;4.472;2022-09-21T02:51:59;317.45;;;317.45;;
71174;SDS011;58876;51.994;4.472;2022-09-21T02:54:32;257.26;;;257.26;;
71174;SDS011;58876;51.994;4.472;2022-09-21T02:57:01;424.17;;;424.17;;
71174;SDS011;58876;51.994;4.472;2022-09-21T02:59:29;692.84;;;692.84;;
71174;SDS011;58876;51.994;4.472;2022-09-21T03:01:55;843.34;;;843.34;;
71174;SDS011;58876;51.994;4.472;2022-09-21T03:04:21;915.72;;;915.72;;
71174;SDS011;58876;51.994;4.472;2022-09-21T03:06:47;586.47;;;586.47;;
71174;SDS011;58876;51.994;4.472;2022-09-21T03:09:13;169.28;;;169.28;;
71174;SDS011;58876;51.994;4.472;2022-09-21T03:11:38;88.20;;;88.20;;
71174;SDS011;58876;51.994;4.472;2022-09-21T03:14:06;134.42;;;134.42;;
71174;SDS011;58876;51.994;4.472;2022-09-21T03:16:33;106.85;;;106.85;;
71174;SDS011;58876;51.994;4.472;2022-09-21T03:18:59;90.09;;;90.09;;
71174;SDS011;58876;51.994;4.472;2022-09-21T03:21:25;93.50;;;93.50;;
71174;SDS011;58876;51.994;4.472;2022-09-21T03:23:51;95.78;;;95.78;;
71174;SDS011;58876;51.994;4.472;2022-09-21T03:26:17;97.21;;;97.21;;
71174;SDS011;58876;51.994;4.472;2022-09-21T03:28:49;108.93;;;108.93;;
71174;SDS011;58876;51.994;4.472;2022-09-21T03:31:16;117.08;;;117.08;;
71174;SDS011;58876;51.994;4.472;2022-09-21T03:33:42;118.49;;;118.49;;
71174;SDS011;58876;51.994;4.472;2022-09-21T03:36:08;85.88;;;85.88;;
71174;SDS011;58876;51.994;4.472;2022-09-21T03:38:34;72.20;;;72.20;;
71174;SDS011;58876;51.994;4.472;2022-09-21T03:41:00;76.46;;;76.46;;
71174;SDS011;58876;51.994;4.472;2022-09-21T03:43:26;81.36;;;81.36;;
71174;SDS011;58876;51.994;4.472;2022-09-21T03:45:51;82.42;;;82.42;;
71174;SDS011;58876;51.994;4.472;2022-09-21T03:48:17;86.88;;;86.88;;
71174;SDS011;58876;51.994;4.472;2022-09-21T03:50:43;78.94;;;78.94;;
71174;SDS011;58876;51.994;4.472;2022-09-21T03:53:09;68.22;;;68.22;;
71174;SDS011;58876;51.994;4.472;2022-09-21T03:55:36;64.97;;;64.97;;
71174;SDS011;58876;51.994;4.472;2022-09-21T03:58:02;62.28;;;62.28;;
71174;SDS011;58876;51.994;4.472;2022-09-21T04:00:28;65.40;;;65.40;;
71174;SDS011;58876;51.994;4.472;2022-09-21T04:02:54;68.83;;;68.83;;
71174;SDS011;58876;51.994;4.472;2022-09-21T04:05:21;66.67;;;66.67;;
71174;SDS011;58876;51.994;4.472;2022-09-21T04:07:48;66.78;;;66.78;;
71174;SDS011;58876;51.994;4.472;2022-09-21T04:10:15;59.42;;;59.42;;
71174;SDS011;58876;51.994;4.472;2022-09-21T04:12:43;65.81;;;65.81;;
71174;SDS011;58876;51.994;4.472;2022-09-21T04:15:15;68.80;;;68.80;;
71174;SDS011;58876;51.994;4.472;2022-09-21T04:17:44;65.25;;;65.25;;
71174;SDS011;58876;51.994;4.472;2022-09-21T04:20:10;67.14;;;67.14;;
71174;SDS011;58876;51.994;4.472;2022-09-21T04:22:36;74.09;;;74.09;;
71174;SDS011;58876;51.994;4.472;2022-09-21T04:25:02;73.72;;;73.72;;
71174;SDS011;58876;51.994;4.472;2022-09-21T04:27:31;68.99;;;68.99;;
71174;SDS011;58876;51.994;4.472;2022-09-21T04:29:58;66.70;;;66.70;;
71174;SDS011;58876;51.994;4.472;2022-09-21T04:32:24;67.22;;;67.22;;
71174;SDS011;58876;51.994;4.472;2022-09-21T04:34:50;70.30;;;70.30;;
71174;SDS011;58876;51.994;4.472;2022-09-21T04:37:15;68.97;;;68.97;;
71174;SDS011;58876;51.994;4.472;2022-09-21T04:39:41;68.52;;;68.52;;
71174;SDS011;58876;51.994;4.472;2022-09-21T04:42:06;71.86;;;71.86;;
71174;SDS011;58876;51.994;4.472;2022-09-21T04:44:33;79.06;;;79.06;;
71174;SDS011;58876;51.994;4.472;2022-09-21T04:46:58;85.12;;;85.12;;
71174;SDS011;58876;51.994;4.472;2022-09-21T04:49:24;84.41;;;84.41;;
71174;SDS011;58876;51.994;4.472;2022-09-21T04:51:50;82.33;;;82.33;;
71174;SDS011;58876;51.994;4.472;2022-09-21T04:54:15;82.47;;;82.47;;
71174;SDS011;58876;51.994;4.472;2022-09-21T04:56:41;87.92;;;87.92;;
71174;SDS011;58876;51.994;4.472;2022-09-21T04:59:06;96.50;;;96.50;;
71174;SDS011;58876;51.994;4.472;2022-09-21T05:01:31;95.67;;;95.67;;
71174;SDS011;58876;51.994;4.472;2022-09-21T05:03:57;80.45;;;80.45;;
71174;SDS011;58876;51.994;4.472;2022-09-21T05:06:26;80.49;;;80.49;;
71174;SDS011;58876;51.994;4.472;2022-09-21T05:08:56;74.83;;;74.83;;
71174;SDS011;58876;51.994;4.472;2022-09-21T05:11:41;72.98;;;72.98;;
71174;SDS011;58876;51.994;4.472;2022-09-21T05:14:07;70.87;;;70.87;;
71174;SDS011;58876;51.994;4.472;2022-09-21T05:16:33;72.56;;;72.56;;
71174;SDS011;58876;51.994;4.472;2022-09-21T05:18:58;74.09;;;74.09;;
71174;SDS011;58876;51.994;4.472;2022-09-21T05:21:24;71.33;;;71.33;;
71174;SDS011;58876;51.994;4.472;2022-09-21T05:23:50;66.44;;;66.44;;
71174;SDS011;58876;51.994;4.472;2022-09-21T05:26:15;66.34;;;66.34;;
71174;SDS011;58876;51.994;4.472;2022-09-21T05:28:41;69.72;;;69.72;;
71174;SDS011;58876;51.994;4.472;2022-09-21T05:33:43;65.19;;;65.19;;
71174;SDS011;58876;51.994;4.472;2022-09-21T05:39:29;68.87;;;68.87;;
71174;SDS011;58876;51.994;4.472;2022-09-21T05:41:55;71.79;;;71.79;;
71174;SDS011;58876;51.994;4.472;2022-09-21T05:44:22;72.00;;;72.00;;
71174;SDS011;58876;51.994;4.472;2022-09-21T05:46:50;70.78;;;70.78;;
71174;SDS011;58876;51.994;4.472;2022-09-21T05:52:20;73.39;;;73.39;;
71174;SDS011;58876;51.994;4.472;2022-09-21T06:00:39;76.56;;;76.56;;
71174;SDS011;58876;51.994;4.472;2022-09-21T06:03:29;80.39;;;80.39;;
71174;SDS011;58876;51.994;4.472;2022-09-21T06:05:56;84.72;;;84.72;;
71174;SDS011;58876;51.994;4.472;2022-09-21T06:08:23;92.16;;;92.16;;
71174;SDS011;58876;51.994;4.472;2022-09-21T06:10:49;100.29;;;100.29;;
71174;SDS011;58876;51.994;4.472;2022-09-21T06:13:15;97.78;;;97.78;;
71174;SDS011;58876;51.994;4.472;2022-09-21T06:15:40;89.32;;;89.32;;
71174;SDS011;58876;51.994;4.472;2022-09-21T06:18:07;75.55;;;75.55;;
71174;SDS011;58876;51.994;4.472;2022-09-21T06:20:33;70.22;;;70.22;;
71174;SDS011;58876;51.994;4.472;2022-09-21T06:23:04;74.50;;;74.50;;
71174;SDS011;58876;51.994;4.472;2022-09-21T06:25:32;67.87;;;67.87;;
71174;SDS011;58876;51.994;4.472;2022-09-21T06:28:01;69.77;;;69.77;;
71174;SDS011;58876;51.994;4.472;2022-09-21T06:30:35;74.66;;;74.66;;
71174;SDS011;58876;51.994;4.472;2022-09-21T06:33:02;67.76;;;67.76;;
71174;SDS011;58876;51.994;4.472;2022-09-21T06:35:30;65.32;;;65.32;;
71174;SDS011;58876;51.994;4.472;2022-09-21T06:37:58;66.21;;;66.21;;
71174;SDS011;58876;51.994;4.472;2022-09-21T06:40:26;71.04;;;71.04;;
71174;SDS011;58876;51.994;4.472;2022-09-21T06:42:56;72.02;;;72.02;;
71174;SDS011;58876;51.994;4.472;2022-09-21T06:45:25;76.88;;;76.88;;
71174;SDS011;58876;51.994;4.472;2022-09-21T06:47:52;86.55;;;86.55;;
71174;SDS011;58876;51.994;4.472;2022-09-21T06:50:17;76.90;;;76.90;;
71174;SDS011;58876;51.994;4.472;2022-09-21T06:52:43;76.70;;;76.70;;
71174;SDS011;58876;51.994;4.472;2022-09-21T06:55:09;76.68;;;76.68;;
71174;SDS011;58876;51.994;4.472;2022-09-21T06:57:35;97.39;;;97.39;;
71174;SDS011;58876;51.994;4.472;2022-09-21T07:00:05;208.56;;;208.56;;
71174;SDS011;58876;51.994;4.472;2022-09-21T07:02:33;345.71;;;345.71;;
71174;SDS011;58876;51.994;4.472;2022-09-21T07:04:59;354.46;;;354.46;;
71174;SDS011;58876;51.994;4.472;2022-09-21T07:07:26;351.49;;;351.49;;
71174;SDS011;58876;51.994;4.472;2022-09-21T07:09:56;194.35;;;194.35;;
71174;SDS011;58876;51.994;4.472;2022-09-21T07:12:29;251.04;;;251.04;;
71174;SDS011;58876;51.994;4.472;2022-09-21T07:14:58;343.09;;;343.09;;
71174;SDS011;58876;51.994;4.472;2022-09-21T07:17:24;296.50;;;296.50;;
71174;SDS011;58876;51.994;4.472;2022-09-21T07:19:50;936.18;;;936.18;;
71174;SDS011;58876;51.994;4.472;2022-09-21T07:22:15;1257.08;;;1257.08;;
71174;SDS011;58876;51.994;4.472;2022-09-21T07:24:41;826.79;;;826.79;;
71174;SDS011;58876;51.994;4.472;2022-09-21T07:27:06;695.34;;;695.34;;
71174;SDS011;58876;51.994;4.472;2022-09-21T07:29:32;677.29;;;677.29;;
71174;SDS011;58876;51.994;4.472;2022-09-21T07:31:57;1292.20;;;1292.20;;
71174;SDS011;58876;51.994;4.472;2022-09-21T07:34:23;1204.78;;;1204.78;;
71174;SDS011;58876;51.994;4.472;2022-09-21T07:36:48;512.58;;;512.58;;
71174;SDS011;58876;51.994;4.472;2022-09-21T07:39:13;86.39;;;86.39;;
71174;SDS011;58876;51.994;4.472;2022-09-21T07:41:39;24.82;;;24.82;;
71174;SDS011;58876;51.994;4.472;2022-09-21T07:44:04;22.27;;;22.27;;
71174;SDS011;58876;51.994;4.472;2022-09-21T07:46:30;21.35;;;21.35;;
71174;SDS011;58876;51.994;4.472;2022-09-21T07:48:55;28.71;;;28.71;;
71174;SDS011;58876;51.994;4.472;2022-09-21T07:51:21;47.79;;;47.79;;
71174;SDS011;58876;51.994;4.472;2022-09-21T07:53:52;54.11;;;54.11;;
71174;SDS011;58876;51.994;4.472;2022-09-21T07:56:21;51.22;;;51.22;;
71174;SDS011;58876;51.994;4.472;2022-09-21T07:58:46;55.74;;;55.74;;
71174;SDS011;58876;51.994;4.472;2022-09-21T08:01:31;33.44;;;33.44;;
71174;SDS011;58876;51.994;4.472;2022-09-21T08:04:05;45.89;;;45.89;;
71174;SDS011;58876;51.994;4.472;2022-09-21T08:06:33;149.82;;;149.82;;
71174;SDS011;58876;51.994;4.472;2022-09-21T08:09:02;58.83;;;58.83;;
71174;SDS011;58876;51.994;4.472;2022-09-21T08:11:28;105.39;;;105.39;;
71174;SDS011;58876;51.994;4.472;2022-09-21T08:13:58;32.57;;;32.57;;
71174;SDS011;58876;51.994;4.472;2022-09-21T08:16:26;14.79;;;14.79;;
71174;SDS011;58876;51.994;4.472;2022-09-21T08:18:53;17.24;;;17.24;;
71174;SDS011;58876;51.994;4.472;2022-09-21T08:21:18;24.04;;;24.04;;
71174;SDS011;58876;51.994;4.472;2022-09-21T08:23:45;30.29;;;30.29;;
71174;SDS011;58876;51.994;4.472;2022-09-21T08:26:13;29.02;;;29.02;;
71174;SDS011;58876;51.994;4.472;2022-09-21T08:28:42;10.77;;;10.77;;
71174;SDS011;58876;51.994;4.472;2022-09-21T08:31:13;11.08;;;11.08;;
71174;SDS011;58876;51.994;4.472;2022-09-21T08:33:41;14.44;;;14.44;;
71174;SDS011;58876;51.994;4.472;2022-09-21T08:36:07;14.17;;;14.17;;
71174;SDS011;58876;51.994;4.472;2022-09-21T08:38:35;10.90;;;10.90;;
71174;SDS011;58876;51.994;4.472;2022-09-21T08:41:09;11.28;;;11.28;;
71174;SDS011;58876;51.994;4.472;2022-09-21T08:44:11;10.77;;;10.77;;
71174;SDS011;58876;51.994;4.472;2022-09-21T08:46:47;13.24;;;13.24;;
71174;SDS011;58876;51.994;4.472;2022-09-21T08:49:24;14.35;;;14.35;;
71174;SDS011;58876;51.994;4.472;2022-09-21T08:51:56;12.92;;;12.92;;
71174;SDS011;58876;51.994;4.472;2022-09-21T08:54:34;10.46;;;10.46;;
71174;SDS011;58876;51.994;4.472;2022-09-21T08:57:11;16.56;;;16.56;;
71174;SDS011;58876;51.994;4.472;2022-09-21T08:59:40;14.24;;;14.24;;
71174;SDS011;58876;51.994;4.472;2022-09-21T09:05:02;12.56;;;12.56;;
71174;SDS011;58876;51.994;4.472;2022-09-21T09:07:54;10.82;;;10.82;;
71174;SDS011;58876;51.994;4.472;2022-09-21T09:11:04;10.41;;;10.41;;
71174;SDS011;58876;51.994;4.472;2022-09-21T09:16:23;13.66;;;13.66;;
71174;SDS011;58876;51.994;4.472;2022-09-21T09:19:11;18.14;;;18.14;;
71174;SDS011;58876;51.994;4.472;2022-09-21T09:21:46;18.60;;;18.60;;
71174;SDS011;58876;51.994;4.472;2022-09-21T09:24:14;10.93;;;10.93;;
71174;SDS011;58876;51.994;4.472;2022-09-21T09:26:52;14.06;;;14.06;;
71174;SDS011;58876;51.994;4.472;2022-09-21T09:29:30;14.38;;;14.38;;
71174;SDS011;58876;51.994;4.472;2022-09-21T09:32:19;14.48;;;14.48;;
71174;SDS011;58876;51.994;4.472;2022-09-21T09:35:30;17.87;;;17.87;;
71174;SDS011;58876;51.994;4.472;2022-09-21T09:52:24;16.36;;;16.36;;
71174;SDS011;58876;51.994;4.472;2022-09-21T09:54:50;21.13;;;21.13;;
71174;SDS011;58876;51.994;4.472;2022-09-21T09:57:19;22.89;;;22.89;;
71174;SDS011;58876;51.994;4.472;2022-09-21T09:59:58;24.07;;;24.07;;
71174;SDS011;58876;51.994;4.472;2022-09-21T10:02:29;23.93;;;23.93;;
71174;SDS011;58876;51.994;4.472;2022-09-21T10:05:02;18.25;;;18.25;;
71174;SDS011;58876;51.994;4.472;2022-09-21T10:07:42;16.91;;;16.91;;
71174;SDS011;58876;51.994;4.472;2022-09-21T10:10:22;26.92;;;26.92;;
71174;SDS011;58876;51.994;4.472;2022-09-21T10:12:55;33.38;;;33.38;;
71174;SDS011;58876;51.994;4.472;2022-09-21T10:15:29;32.61;;;32.61;;
71174;SDS011;58876;51.994;4.472;2022-09-21T10:18:01;36.02;;;36.02;;
71174;SDS011;58876;51.994;4.472;2022-09-21T10:20:50;34.29;;;34.29;;
71174;SDS011;58876;51.994;4.472;2022-09-21T10:23:22;37.02;;;37.02;;
71174;SDS011;58876;51.994;4.472;2022-09-21T10:25:54;36.52;;;36.52;;
71174;SDS011;58876;51.994;4.472;2022-09-21T10:28:24;38.31;;;38.31;;
71174;SDS011;58876;51.994;4.472;2022-09-21T10:31:06;21.92;;;21.92;;
71174;SDS011;58876;51.994;4.472;2022-09-21T10:33:35;16.13;;;16.13;;
71174;SDS011;58876;51.994;4.472;2022-09-21T10:36:23;14.89;;;14.89;;
71174;SDS011;58876;51.994;4.472;2022-09-21T10:38:52;19.48;;;19.48;;
71174;SDS011;58876;51.994;4.472;2022-09-21T10:41:17;23.69;;;23.69;;
71174;SDS011;58876;51.994;4.472;2022-09-21T10:43:43;28.95;;;28.95;;
71174;SDS011;58876;51.994;4.472;2022-09-21T10:46:09;31.63;;;31.63;;
71174;SDS011;58876;51.994;4.472;2022-09-21T10:48:36;35.95;;;35.95;;
71174;SDS011;58876;51.994;4.472;2022-09-21T10:51:02;28.17;;;28.17;;
71174;SDS011;58876;51.994;4.472;2022-09-21T10:53:35;37.02;;;37.02;;
71174;SDS011;58876;51.994;4.472;2022-09-21T11:01:48;39.42;;;39.42;;
71174;SDS011;58876;51.994;4.472;2022-09-21T11:09:49;24.24;;;24.24;;
71174;SDS011;58876;51.994;4.472;2022-09-21T11:15:05;25.35;;;25.35;;
71174;SDS011;58876;51.994;4.472;2022-09-21T11:25:45;25.36;;;25.36;;
71174;SDS011;58876;51.994;4.472;2022-09-21T11:28:31;32.08;;;32.08;;
71174;SDS011;58876;51.994;4.472;2022-09-21T11:41:58;39.10;;;39.10;;
71174;SDS011;58876;51.994;4.472;2022-09-21T11:44:54;34.67;;;34.67;;
71174;SDS011;58876;51.994;4.472;2022-09-21T11:47:35;55.92;;;55.92;;
71174;SDS011;58876;51.994;4.472;2022-09-21T11:50:27;34.82;;;34.82;;
71174;SDS011;58876;51.994;4.472;2022-09-21T11:53:24;32.97;;;32.97;;
71174;SDS011;58876;51.994;4.472;2022-09-21T12:09:35;35.11;;;35.11;;
71174;SDS011;58876;51.994;4.472;2022-09-21T12:12:18;33.86;;;33.86;;
71174;SDS011;58876;51.994;4.472;2022-09-21T12:17:37;269.17;;;269.17;;
71174;SDS011;58876;51.994;4.472;2022-09-21T12:20:22;114.73;;;114.73;;
71174;SDS011;58876;51.994;4.472;2022-09-21T12:23:03;307.93;;;307.93;;
71174;SDS011;58876;51.994;4.472;2022-09-21T12:26:01;46.35;;;46.35;;
71174;SDS011;58876;51.994;4.472;2022-09-21T12:28:37;228.22;;;228.22;;
71174;SDS011;58876;51.994;4.472;2022-09-21T12:31:17;252.62;;;252.62;;
71174;SDS011;58876;51.994;4.472;2022-09-21T12:34:02;42.84;;;42.84;;
71174;SDS011;58876;51.994;4.472;2022-09-21T12:36:41;50.13;;;50.13;;
71174;SDS011;58876;51.994;4.472;2022-09-21T12:39:31;68.84;;;68.84;;
71174;SDS011;58876;51.994;4.472;2022-09-21T12:42:20;108.94;;;108.94;;
71174;SDS011;58876;51.994;4.472;2022-09-21T12:50:27;42.67;;;42.67;;
71174;SDS011;58876;51.994;4.472;2022-09-21T12:53:05;54.35;;;54.35;;
71174;SDS011;58876;51.994;4.472;2022-09-21T12:58:56;77.35;;;77.35;;
71174;SDS011;58876;51.994;4.472;2022-09-21T13:01:50;49.02;;;49.02;;
71174;SDS011;58876;51.994;4.472;2022-09-21T13:04:33;37.47;;;37.47;;
71174;SDS011;58876;51.994;4.472;2022-09-21T13:09:56;101.01;;;101.01;;
71174;SDS011;58876;51.994;4.472;2022-09-21T13:12:32;160.06;;;160.06;;
71174;SDS011;58876;51.994;4.472;2022-09-21T13:15:12;190.31;;;190.31;;
71174;SDS011;58876;51.994;4.472;2022-09-21T13:17:46;42.78;;;42.78;;
71174;SDS011;58876;51.994;4.472;2022-09-21T13:20:34;51.08;;;51.08;;
71174;SDS011;58876;51.994;4.472;2022-09-21T13:23:03;46.23;;;46.23;;
71174;SDS011;58876;51.994;4.472;2022-09-21T13:25:31;38.65;;;38.65;;
71174;SDS011;58876;51.994;4.472;2022-09-21T13:28:03;37.50;;;37.50;;
71174;SDS011;58876;51.994;4.472;2022-09-21T13:30:45;37.79;;;37.79;;
71174;SDS011;58876;51.994;4.472;2022-09-21T13:33:36;27.64;;;27.64;;
71174;SDS011;58876;51.994;4.472;2022-09-21T13:36:28;23.27;;;23.27;;
71174;SDS011;58876;51.994;4.472;2022-09-21T13:41:41;35.43;;;35.43;;
71174;SDS011;58876;51.994;4.472;2022-09-21T13:44:20;28.61;;;28.61;;
71174;SDS011;58876;51.994;4.472;2022-09-21T13:47:04;29.40;;;29.40;;
71174;SDS011;58876;51.994;4.472;2022-09-21T13:49:39;32.96;;;32.96;;
71174;SDS011;58876;51.994;4.472;2022-09-21T14:00:03;46.24;;;46.24;;
71174;SDS011;58876;51.994;4.472;2022-09-21T14:02:56;46.06;;;46.06;;
71174;SDS011;58876;51.994;4.472;2022-09-21T14:13:39;62.39;;;62.39;;
71174;SDS011;58876;51.994;4.472;2022-09-21T14:18:55;173.10;;;173.10;;
71174;SDS011;58876;51.994;4.472;2022-09-21T14:21:21;76.57;;;76.57;;
71174;SDS011;58876;51.994;4.472;2022-09-21T14:31:46;208.47;;;208.47;;
71174;SDS011;58876;51.994;4.472;2022-09-21T14:34:18;1008.58;;;1008.58;;
71174;SDS011;58876;51.994;4.472;2022-09-21T14:36:49;32.20;;;32.20;;
71174;SDS011;58876;51.994;4.472;2022-09-21T14:39:39;32.18;;;32.18;;
71174;SDS011;58876;51.994;4.472;2022-09-21T14:42:18;39.49;;;39.49;;
71174;SDS011;58876;51.994;4.472;2022-09-21T14:44:51;37.76;;;37.76;;
71174;SDS011;58876;51.994;4.472;2022-09-21T14:58:11;46.77;;;46.77;;
71174;SDS011;58876;51.994;4.472;2022-09-21T15:00:52;45.10;;;45.10;;
71174;SDS011;58876;51.994;4.472;2022-09-21T15:08:55;39.93;;;39.93;;
71174;SDS011;58876;51.994;4.472;2022-09-21T15:12:12;42.53;;;42.53;;
71174;SDS011;58876;51.994;4.472;2022-09-21T15:14:50;27.87;;;27.87;;
71174;SDS011;58876;51.994;4.472;2022-09-21T15:17:27;25.99;;;25.99;;
71174;SDS011;58876;51.994;4.472;2022-09-21T15:19:57;23.79;;;23.79;;
71174;SDS011;58876;51.994;4.472;2022-09-21T15:22:24;20.48;;;20.48;;
71174;SDS011;58876;51.994;4.472;2022-09-21T15:24:52;18.44;;;18.44;;
71174;SDS011;58876;51.994;4.472;2022-09-21T15:27:21;28.80;;;28.80;;
71174;SDS011;58876;51.994;4.472;2022-09-21T15:29:52;13.68;;;13.68;;
71174;SDS011;58876;51.994;4.472;2022-09-21T15:32:23;13.75;;;13.75;;
71174;SDS011;58876;51.994;4.472;2022-09-21T15:34:58;15.37;;;15.37;;
71174;SDS011;58876;51.994;4.472;2022-09-21T15:37:26;20.71;;;20.71;;
71174;SDS011;58876;51.994;4.472;2022-09-21T15:39:59;23.49;;;23.49;;
71174;SDS011;58876;51.994;4.472;2022-09-21T15:42:27;23.73;;;23.73;;
71174;SDS011;58876;51.994;4.472;2022-09-21T15:45:16;24.93;;;24.93;;
71174;SDS011;58876;51.994;4.472;2022-09-21T15:47:41;22.16;;;22.16;;
71174;SDS011;58876;51.994;4.472;2022-09-21T15:50:12;22.71;;;22.71;;
71174;SDS011;58876;51.994;4.472;2022-09-21T15:52:41;24.54;;;24.54;;
71174;SDS011;58876;51.994;4.472;2022-09-21T15:55:16;22.29;;;22.29;;
71174;SDS011;58876;51.994;4.472;2022-09-21T15:57:45;21.33;;;21.33;;
71174;SDS011;58876;51.994;4.472;2022-09-21T16:02:40;13.72;;;13.72;;
71174;SDS011;58876;51.994;4.472;2022-09-21T16:05:14;12.63;;;12.63;;
71174;SDS011;58876;51.994;4.472;2022-09-21T16:07:45;13.60;;;13.60;;
71174;SDS011;58876;51.994;4.472;2022-09-21T16:18:50;23.20;;;23.20;;
71174;SDS011;58876;51.994;4.472;2022-09-21T16:21:23;23.49;;;23.49;;
71174;SDS011;58876;51.994;4.472;2022-09-21T16:24:06;23.16;;;23.16;;
71174;SDS011;58876;51.994;4.472;2022-09-21T16:26:54;21.42;;;21.42;;
71174;SDS011;58876;51.994;4.472;2022-09-21T16:29:23;22.95;;;22.95;;
71174;SDS011;58876;51.994;4.472;2022-09-21T16:31:50;27.80;;;27.80;;
71174;SDS011;58876;51.994;4.472;2022-09-21T16:34:38;25.87;;;25.87;;
71174;SDS011;58876;51.994;4.472;2022-09-21T16:37:37;26.77;;;26.77;;
71174;SDS011;58876;51.994;4.472;2022-09-21T16:39:57;28.29;;;28.29;;
71174;SDS011;58876;51.994;4.472;2022-09-21T16:42:24;27.28;;;27.28;;
71174;SDS011;58876;51.994;4.472;2022-09-21T16:44:55;27.17;;;27.17;;
71174;SDS011;58876;51.994;4.472;2022-09-21T16:47:22;26.36;;;26.36;;
71174;SDS011;58876;51.994;4.472;2022-09-21T16:49:55;23.61;;;23.61;;
71174;SDS011;58876;51.994;4.472;2022-09-21T16:52:24;22.31;;;22.31;;
71174;SDS011;58876;51.994;4.472;2022-09-21T16:54:52;22.91;;;22.91;;
71174;SDS011;58876;51.994;4.472;2022-09-21T16:57:21;24.32;;;24.32;;
71174;SDS011;58876;51.994;4.472;2022-09-21T16:59:48;19.46;;;19.46;;
71174;SDS011;58876;51.994;4.472;2022-09-21T17:02:15;13.06;;;13.06;;
71174;SDS011;58876;51.994;4.472;2022-09-21T17:04:42;12.39;;;12.39;;
71174;SDS011;58876;51.994;4.472;2022-09-21T17:07:11;16.09;;;16.09;;
71174;SDS011;58876;51.994;4.472;2022-09-21T17:09:39;17.62;;;17.62;;
71174;SDS011;58876;51.994;4.472;2022-09-21T17:12:09;18.75;;;18.75;;
71174;SDS011;58876;51.994;4.472;2022-09-21T17:14:37;25.12;;;25.12;;
71174;SDS011;58876;51.994;4.472;2022-09-21T17:17:12;19.04;;;19.04;;
71174;SDS011;58876;51.994;4.472;2022-09-21T17:19:48;16.04;;;16.04;;
71174;SDS011;58876;51.994;4.472;2022-09-21T17:22:15;12.29;;;12.29;;
71174;SDS011;58876;51.994;4.472;2022-09-21T17:24:46;11.56;;;11.56;;
71174;SDS011;58876;51.994;4.472;2022-09-21T17:27:14;14.66;;;14.66;;
71174;SDS011;58876;51.994;4.472;2022-09-21T17:29:42;22.81;;;22.81;;
71174;SDS011;58876;51.994;4.472;2022-09-21T17:32:17;27.26;;;27.26;;
71174;SDS011;58876;51.994;4.472;2022-09-21T17:34:44;32.70;;;32.70;;
71174;SDS011;58876;51.994;4.472;2022-09-21T17:37:10;34.86;;;34.86;;
71174;SDS011;58876;51.994;4.472;2022-09-21T17:39:37;42.93;;;42.93;;
71174;SDS011;58876;51.994;4.472;2022-09-21T17:42:14;92.95;;;92.95;;